YM Wreath — VRPF9 — position and weather

sailwx.info

Track history (hours):
 
Tides and Currents Weather Stations Pressure Air Temp Water Temp Dewpoint Dewpoint Depression Visibility Wind Speed Wind Dir Waves Ship Positions

YM Wreath

Last reported at 2018-Jun-23 07:29 UTC. Time now 2018-Jun-24 10:50 UTC.
Position N 23°08' E 117°26'.

Length 368 m; draft 12.7 m.

Type: Cargo ship. MMSI: 477096300.

Date/timePositionNaut miles runAvg speedWind from/ knotsBaromVisibWave heightAir tempDewpointWater temp
2018-Jun-23 07:29N 23°08' E 117°26'813.4
2018-Jun-23 06:53N 23°12' E 117°34'512.2
2018-Jun-23 06:31N 23°15' E 117°38'612.6
2018-Jun-23 06:00N 23°20' E 117°42'612.5
2018-Jun-23 05:30N 23°23' E 117°48'815.2
2018-Jun-23 05:00N 23°26' E 117°55'714.6
2018-Jun-23 04:30N 23°31' E 118°02'816.4
2018-Jun-23 04:00N 23°38' E 118°07'816.7
2018-Jun-23 03:30N 23°43' E 118°13'816.7
2018-Jun-23 03:00N 23°49' E 118°20'1117.1
2018-Jun-23 02:21N 23°57' E 118°29'817.3
2018-Jun-23 01:55N 24°03' E 118°34'817.7
2018-Jun-23 01:29N 24°08' E 118°40'917.8
2018-Jun-23 00:59N 24°14' E 118°48'917.8
2018-Jun-23 00:28N 24°20' E 118°55'  
2018-Jun-20 19:51N 30°35' E 122°08'5 0.2
2018-Jun-19 15:05N 30°37' E 122°03'0 1.5
2018-Jun-19 15:00N 30°37' E 122°03'3 5.1
2018-Jun-19 14:24N 30°36' E 122°06'  
Track history (hours):
 
Tides and Currents Weather Stations Pressure Air Temp Water Temp Dewpoint Dewpoint Depression Visibility Wind Speed Wind Dir Waves Ship Positions

YM Wreath

Last reported at 2018-Jun-23 07:29 UTC. Time now 2018-Jun-24 10:50 UTC.
Position N 23°08' E 117°26'.

Length 368 m; draft 12.7 m.

Type: Cargo ship. MMSI: 477096300.

Date/timePositionNaut miles runAvg speedWind from/ knotsBaromVisibWave heightAir tempDewpointWater temp
2018-Jun-23 07:29N 23°08' E 117°26'813.4
2018-Jun-23 06:53N 23°12' E 117°34'512.2
2018-Jun-23 06:31N 23°15' E 117°38'612.6
2018-Jun-23 06:00N 23°20' E 117°42'612.5
2018-Jun-23 05:30N 23°23' E 117°48'815.2
2018-Jun-23 05:00N 23°26' E 117°55'714.6
2018-Jun-23 04:30N 23°31' E 118°02'816.4
2018-Jun-23 04:00N 23°38' E 118°07'816.7
2018-Jun-23 03:30N 23°43' E 118°13'816.7
2018-Jun-23 03:00N 23°49' E 118°20'1117.1
2018-Jun-23 02:21N 23°57' E 118°29'817.3
2018-Jun-23 01:55N 24°03' E 118°34'817.7
2018-Jun-23 01:29N 24°08' E 118°40'917.8
2018-Jun-23 00:59N 24°14' E 118°48'917.8
2018-Jun-23 00:28N 24°20' E 118°55'  
2018-Jun-20 19:51N 30°35' E 122°08'5 0.2
2018-Jun-19 15:05N 30°37' E 122°03'0 1.5
2018-Jun-19 15:00N 30°37' E 122°03'3 5.1
2018-Jun-19 14:24N 30°36' E 122°06'  

Dump ship's entire track history